createdAt,value
2023-08-09T00:01:54.710Z,493.92
2023-08-09T00:04:21.349Z,494.70
2023-08-09T00:06:47.904Z,491.88
2023-08-09T00:09:14.436Z,489.58
2023-08-09T00:11:41.073Z,493.45
2023-08-09T00:14:08.274Z,495.30
2023-08-09T00:16:35.049Z,494.15
2023-08-09T00:19:01.731Z,506.00
2023-08-09T00:21:30.605Z,490.25
2023-08-09T00:23:57.151Z,487.63
2023-08-09T00:26:24.086Z,494.83
2023-08-09T00:28:50.635Z,485.77
2023-08-09T00:31:19.151Z,493.50
2023-08-09T00:33:46.630Z,485.65
2023-08-09T00:36:13.330Z,504.63
2023-08-09T00:38:40.149Z,501.23
2023-08-09T00:41:08.076Z,505.80
2023-08-09T00:43:34.602Z,508.90
2023-08-09T00:46:02.865Z,501.15
2023-08-09T00:48:29.775Z,504.90
2023-08-09T00:50:56.404Z,502.33
2023-08-09T00:53:23.340Z,501.95
2023-08-09T00:55:50.035Z,504.70
2023-08-09T00:58:17.122Z,514.10
2023-08-09T01:00:43.714Z,508.10
2023-08-09T01:03:42.882Z,503.17
2023-08-09T01:06:18.241Z,522.22
2023-08-09T01:08:57.189Z,584.10
2023-08-09T01:11:54.649Z,536.50
2023-08-09T01:14:23.543Z,518.10
2023-08-09T01:16:51.629Z,553.08
2023-08-09T01:19:39.077Z,527.15
2023-08-09T01:22:17.120Z,528.08
2023-08-09T01:24:45.043Z,585.30
2023-08-09T01:27:11.916Z,524.15
2023-08-09T01:29:40.094Z,677.75
2023-08-09T01:32:06.936Z,594.35
2023-08-09T01:34:33.950Z,535.05
2023-08-09T01:37:22.444Z,552.17
2023-08-09T01:39:51.298Z,564.92
2023-08-09T01:42:20.775Z,525.50
2023-08-09T01:44:48.261Z,592.83
2023-08-09T01:47:15.642Z,527.75
2023-08-09T01:49:47.019Z,537.28
2023-08-09T01:52:13.819Z,532.97
2023-08-09T01:54:40.713Z,535.33
2023-08-09T01:57:07.556Z,547.97
2023-08-09T01:59:34.188Z,532.20
2023-08-09T02:02:00.836Z,558.58
2023-08-09T02:04:27.408Z,537.92
2023-08-09T02:06:54.186Z,550.80
2023-08-09T02:09:20.795Z,532.10
2023-08-09T02:11:47.633Z,533.38
2023-08-09T02:14:14.183Z,527.45
2023-08-09T02:16:41.959Z,536.05
2023-08-09T02:19:10.726Z,543.92
2023-08-09T02:21:43.544Z,523.28
2023-08-09T02:24:10.088Z,531.60
2023-08-09T02:26:39.780Z,525.42
2023-08-09T02:29:06.589Z,537.45
2023-08-09T02:31:33.237Z,548.90
2023-08-09T02:34:00.002Z,527.90
2023-08-09T02:36:26.682Z,606.17
2023-08-09T02:38:53.432Z,534.80
2023-08-09T02:41:23.097Z,545.10
2023-08-09T02:43:49.718Z,521.97
2023-08-09T02:46:16.551Z,538.92
2023-08-09T02:48:43.384Z,557.08
2023-08-09T02:51:09.955Z,534.58
2023-08-09T02:53:58.526Z,547.40
2023-08-09T02:56:25.159Z,552.40
2023-08-09T02:58:51.731Z,525.10
2023-08-09T03:01:18.374Z,580.20
2023-08-09T03:03:45.285Z,530.80
2023-08-09T03:06:12.126Z,537.30
2023-08-09T03:08:38.840Z,534.83
2023-08-09T03:11:05.529Z,539.97
2023-08-09T03:13:32.308Z,536.25
2023-08-09T03:15:58.921Z,530.25
2023-08-09T03:18:25.588Z,551.67
2023-08-09T03:20:53.389Z,536.50
2023-08-09T03:23:19.997Z,558.03
2023-08-09T03:25:47.198Z,529.25
2023-08-09T03:28:13.926Z,552.38
2023-08-09T03:30:40.501Z,527.53
2023-08-09T03:33:07.236Z,531.50
2023-08-09T03:35:34.944Z,543.17
2023-08-09T03:38:01.679Z,564.55
2023-08-09T03:40:28.308Z,540.15
2023-08-09T03:42:55.632Z,556.90
2023-08-09T03:45:24.210Z,541.28
2023-08-09T03:47:53.662Z,557.80
2023-08-09T03:50:21.389Z,562.25
2023-08-09T03:52:47.945Z,535.83
2023-08-09T03:55:14.791Z,565.53
2023-08-09T03:57:42.499Z,528.22
2023-08-09T04:00:10.510Z,576.13
2023-08-09T04:02:40.179Z,546.70
2023-08-09T04:05:07.231Z,564.17
2023-08-09T04:07:35.130Z,612.95
2023-08-09T04:10:01.858Z,552.22
2023-08-09T04:12:28.512Z,566.80
2023-08-09T04:14:55.039Z,534.13
2023-08-09T04:17:21.696Z,553.35
2023-08-09T04:19:48.280Z,541.38
2023-08-09T04:22:15.090Z,567.58
2023-08-09T04:24:41.687Z,558.45
2023-08-09T04:27:08.329Z,539.13
2023-08-09T04:29:35.127Z,554.28
2023-08-09T04:32:01.776Z,533.25
2023-08-09T04:34:28.280Z,565.88
2023-08-09T04:36:54.847Z,539.80
2023-08-09T04:39:21.733Z,585.67
2023-08-09T04:41:48.541Z,559.35
2023-08-09T04:44:15.052Z,537.55
2023-08-09T04:46:42.405Z,622.80
2023-08-09T04:49:08.989Z,542.17
2023-08-09T04:51:35.882Z,591.85
2023-08-09T04:54:02.441Z,537.75
2023-08-09T04:56:29.144Z,543.40
2023-08-09T04:58:55.691Z,543.47
2023-08-09T05:01:22.233Z,538.38
2023-08-09T05:03:48.826Z,554.60
2023-08-09T05:06:15.440Z,539.35
2023-08-09T05:08:42.025Z,561.50
2023-08-09T05:11:08.549Z,542.80
2023-08-09T05:13:35.142Z,551.70
2023-08-09T05:16:01.808Z,542.92
2023-08-09T05:18:28.397Z,544.45
2023-08-09T05:20:55.035Z,543.67
2023-08-09T05:23:21.716Z,551.45
2023-08-09T05:25:48.407Z,561.67
2023-08-09T05:28:14.950Z,538.28
2023-08-09T05:30:41.728Z,569.33
2023-08-09T05:33:08.378Z,544.03
2023-08-09T05:35:35.002Z,558.47
2023-08-09T05:38:01.522Z,545.30
2023-08-09T05:40:28.152Z,553.45
2023-08-09T05:42:54.814Z,547.63
2023-08-09T05:45:22.129Z,573.45
2023-08-09T05:47:48.642Z,560.45
2023-08-09T05:50:16.228Z,573.22
2023-08-09T05:52:43.466Z,627.15
2023-08-09T05:55:10.602Z,580.33
2023-08-09T05:57:37.985Z,566.40
2023-08-09T06:00:06.998Z,555.75
2023-08-09T06:02:34.611Z,561.45
2023-08-09T06:05:01.773Z,552.05
2023-08-09T06:07:29.934Z,556.60
2023-08-09T06:09:56.554Z,556.88
2023-08-09T06:12:23.114Z,555.53
2023-08-09T06:14:49.740Z,567.33
2023-08-09T06:17:16.257Z,549.92
2023-08-09T06:19:42.798Z,578.00
2023-08-09T06:22:09.791Z,564.22
2023-08-09T06:24:36.332Z,557.13
2023-08-09T06:27:03.095Z,582.03
2023-08-09T06:29:29.921Z,564.40
2023-08-09T06:31:56.483Z,585.85
2023-08-09T06:34:23.665Z,563.17
2023-08-09T06:36:50.248Z,573.97
2023-08-09T06:39:16.772Z,567.28
2023-08-09T06:41:43.619Z,563.13
2023-08-09T06:44:10.193Z,565.85
2023-08-09T06:46:37.258Z,547.08
2023-08-09T06:49:03.874Z,578.83
2023-08-09T06:51:30.394Z,554.78
2023-08-09T06:53:56.949Z,619.33
2023-08-09T06:56:24.539Z,555.40
2023-08-09T06:58:51.061Z,569.78
2023-08-09T07:01:18.228Z,562.45
2023-08-09T07:03:45.149Z,568.17
2023-08-09T07:06:11.769Z,570.15
2023-08-09T07:08:38.355Z,564.58
2023-08-09T07:11:05.103Z,581.35
2023-08-09T07:13:31.708Z,557.97
2023-08-09T07:15:58.326Z,582.00
2023-08-09T07:18:26.417Z,553.63
2023-08-09T07:20:52.955Z,572.38
2023-08-09T07:23:35.168Z,566.55
2023-08-09T07:26:07.628Z,568.60
2023-08-09T07:28:34.172Z,563.30
2023-08-09T07:31:01.090Z,587.47
2023-08-09T07:33:27.687Z,566.25
2023-08-09T07:35:54.810Z,586.13
2023-08-09T07:38:21.460Z,571.33
2023-08-09T07:40:47.966Z,573.65
2023-08-09T07:43:14.546Z,589.13
2023-08-09T07:45:43.683Z,582.05
2023-08-09T07:48:10.475Z,608.45
2023-08-09T07:50:37.213Z,574.70
2023-08-09T07:53:04.068Z,589.30
2023-08-09T07:55:32.613Z,572.78
2023-08-09T07:57:59.340Z,579.00
2023-08-09T08:00:31.588Z,600.70
2023-08-09T08:03:02.083Z,586.90
2023-08-09T08:05:28.809Z,602.30
2023-08-09T08:07:55.664Z,594.00
2023-08-09T08:10:23.856Z,652.28
2023-08-09T08:12:50.826Z,589.30
2023-08-09T08:15:18.058Z,639.72
2023-08-09T08:17:47.417Z,579.35
2023-08-09T08:20:17.131Z,657.42
2023-08-09T08:22:48.518Z,577.85
2023-08-09T08:27:46.917Z,575.05
2023-08-09T08:30:15.526Z,703.95
2023-08-09T08:32:42.367Z,577.90
2023-08-09T08:35:12.748Z,622.50
2023-08-09T08:37:40.303Z,583.63
2023-08-09T08:40:09.639Z,625.65
2023-08-09T08:42:37.639Z,593.58
2023-08-09T08:45:12.563Z,609.58
2023-08-09T08:47:40.461Z,605.60
2023-08-09T08:50:09.704Z,661.90
2023-08-09T08:52:41.749Z,564.17
2023-08-09T08:55:11.067Z,606.42
2023-08-09T08:57:39.348Z,555.90
2023-08-09T09:00:25.233Z,577.80
2023-08-09T09:02:53.933Z,549.95
2023-08-09T09:05:20.725Z,599.85
2023-08-09T09:07:50.804Z,543.67
2023-08-09T09:10:20.215Z,602.78
2023-08-09T09:12:47.096Z,538.88
2023-08-09T09:15:15.483Z,587.53
2023-08-09T09:17:43.937Z,536.63
2023-08-09T09:20:16.266Z,580.42
2023-08-09T09:22:42.809Z,534.22
2023-08-09T09:25:12.768Z,596.22
2023-08-09T09:27:43.366Z,539.33
2023-08-09T09:30:13.890Z,587.47
2023-08-09T09:32:52.717Z,549.97
2023-08-09T09:35:20.330Z,592.28
2023-08-09T09:37:51.632Z,545.22
2023-08-09T09:40:35.662Z,601.88
2023-08-09T09:43:05.597Z,548.10
2023-08-09T09:45:34.294Z,550.03
2023-08-09T09:48:03.239Z,563.58
2023-08-09T09:50:32.291Z,562.72
2023-08-09T09:53:00.162Z,555.58
2023-08-09T09:55:26.919Z,588.92
2023-08-09T09:57:54.691Z,553.95
2023-08-09T10:00:21.592Z,620.90
2023-08-09T10:02:50.771Z,553.03
2023-08-09T10:05:23.128Z,606.67
2023-08-09T10:07:53.872Z,547.45
2023-08-09T10:10:21.516Z,636.53
2023-08-09T10:12:52.535Z,554.15
2023-08-09T10:15:32.529Z,661.72
2023-08-09T10:18:05.587Z,553.97
2023-08-09T10:20:33.137Z,559.65
2023-08-09T10:22:59.934Z,561.15
2023-08-09T10:25:46.138Z,567.85
2023-08-09T10:28:13.487Z,571.67
2023-08-09T10:30:50.263Z,560.42
2023-08-09T10:33:20.824Z,619.15
2023-08-09T10:35:49.920Z,564.22
2023-08-09T10:38:19.877Z,579.40
2023-08-09T10:40:53.578Z,562.33
2023-08-09T10:43:25.622Z,579.40
2023-08-09T10:45:55.463Z,553.28
2023-08-09T10:48:24.783Z,569.83
2023-08-09T10:51:01.961Z,557.00
2023-08-09T10:53:28.770Z,562.50
2023-08-09T10:55:58.987Z,551.47
2023-08-09T10:58:30.580Z,565.88
2023-08-09T11:00:57.417Z,549.45
2023-08-09T11:03:24.207Z,564.13
2023-08-09T11:05:51.236Z,545.30
2023-08-09T11:08:19.984Z,572.65
2023-08-09T11:10:47.478Z,551.42
2023-08-09T11:13:15.849Z,576.25
2023-08-09T11:15:44.604Z,559.95
2023-08-09T11:18:11.385Z,578.67
2023-08-09T11:20:38.018Z,568.22
2023-08-09T11:23:05.255Z,576.53
2023-08-09T11:25:33.253Z,572.47
2023-08-09T11:28:02.503Z,588.95
2023-08-09T11:30:31.207Z,592.65
2023-08-09T11:33:03.672Z,590.38
2023-08-09T11:35:39.624Z,613.10
2023-08-09T11:38:10.929Z,605.05
2023-08-09T11:40:41.721Z,600.00
2023-08-09T11:43:11.936Z,633.03
2023-08-09T11:45:53.693Z,592.70
2023-08-09T11:48:35.185Z,658.50
2023-08-09T11:51:16.225Z,589.70
2023-08-09T11:53:44.668Z,590.22
2023-08-09T11:56:20.001Z,597.58
2023-08-09T11:58:48.589Z,584.38
2023-08-09T12:01:15.974Z,610.50
2023-08-09T12:03:43.213Z,587.95
2023-08-09T12:06:10.460Z,602.70
2023-08-09T12:08:38.529Z,582.20
2023-08-09T12:11:05.588Z,596.83
2023-08-09T12:13:32.952Z,583.60
2023-08-09T12:16:00.046Z,593.30
2023-08-09T12:18:26.731Z,604.70
2023-08-09T12:20:55.383Z,600.15
2023-08-09T12:23:22.064Z,620.08
2023-08-09T12:25:48.640Z,600.78
2023-08-09T12:28:15.522Z,633.17
2023-08-09T12:30:42.429Z,598.97
2023-08-09T12:33:10.032Z,615.65
2023-08-09T12:35:36.767Z,599.55
2023-08-09T12:38:03.875Z,605.70
2023-08-09T12:40:30.645Z,617.40
2023-08-09T12:42:57.520Z,599.17
2023-08-09T12:45:24.331Z,605.65
2023-08-09T12:47:51.000Z,583.72
2023-08-09T12:50:17.745Z,687.83
2023-08-09T12:52:47.342Z,586.97
2023-08-09T12:55:19.164Z,742.95
2023-08-09T12:57:47.303Z,597.90
2023-08-09T13:00:15.110Z,652.28
2023-08-09T13:02:41.844Z,615.85
2023-08-09T13:05:10.003Z,672.08
2023-08-09T13:07:36.878Z,620.63
2023-08-09T13:10:05.301Z,660.95
2023-08-09T13:12:34.156Z,715.40
2023-08-09T13:15:01.811Z,738.55
2023-08-09T13:17:30.614Z,695.33
2023-08-09T13:19:58.014Z,653.22
2023-08-09T13:22:25.144Z,675.35
2023-08-09T13:24:51.930Z,638.72
2023-08-09T13:27:18.674Z,585.67
2023-08-09T13:29:45.262Z,570.08
2023-08-09T13:32:12.610Z,664.90
2023-08-09T13:34:39.214Z,563.72
2023-08-09T13:37:05.776Z,654.92
2023-08-09T13:39:32.372Z,653.97
2023-08-09T13:41:59.098Z,654.53
2023-08-09T13:44:25.768Z,738.35
2023-08-09T13:46:52.336Z,704.80
2023-08-09T13:49:18.953Z,720.72
2023-08-09T13:51:45.761Z,716.70
2023-08-09T13:54:12.504Z,653.50
2023-08-09T13:56:39.135Z,679.70
2023-08-09T13:59:05.721Z,698.35
2023-08-09T14:01:34.666Z,733.33
2023-08-09T14:04:01.570Z,644.58
2023-08-09T14:06:28.286Z,669.45
2023-08-09T14:08:55.117Z,586.42
2023-08-09T14:11:21.633Z,584.05
2023-08-09T14:13:49.010Z,576.15
2023-08-09T14:16:15.604Z,586.00
2023-08-09T14:18:42.561Z,626.60
2023-08-09T14:21:10.376Z,602.15
2023-08-09T14:23:40.531Z,619.70
2023-08-09T14:26:08.261Z,579.00
2023-08-09T14:28:36.685Z,607.05
2023-08-09T14:31:04.928Z,605.42
2023-08-09T14:33:33.277Z,598.85
2023-08-09T14:36:00.720Z,580.33
2023-08-09T14:38:28.278Z,606.05
2023-08-09T14:40:55.752Z,614.13
2023-08-09T14:43:23.204Z,666.20
2023-08-09T14:45:50.686Z,604.40
2023-08-09T14:48:18.166Z,623.53
2023-08-09T14:50:47.078Z,599.65
2023-08-09T14:53:14.188Z,607.70
2023-08-09T14:55:43.508Z,589.72
2023-08-09T14:58:10.359Z,712.10
2023-08-09T15:00:37.919Z,572.17
2023-08-09T15:03:05.231Z,601.60
2023-08-09T15:05:32.129Z,572.97
2023-08-09T15:07:59.783Z,620.00
2023-08-09T15:10:26.408Z,571.47
2023-08-09T15:12:53.274Z,573.55
2023-08-09T15:15:20.286Z,634.83
2023-08-09T15:17:47.286Z,551.97
2023-08-09T15:20:14.031Z,605.72
2023-08-09T15:22:40.706Z,624.60
2023-08-09T15:25:20.018Z,584.75
2023-08-09T15:27:47.754Z,565.30
2023-08-09T15:30:20.005Z,589.83
2023-08-09T15:32:49.351Z,565.03
2023-08-09T15:35:16.088Z,576.95
2023-08-09T15:37:42.958Z,539.67
2023-08-09T15:40:10.410Z,590.03
2023-08-09T15:42:37.736Z,534.47
2023-08-09T15:45:05.022Z,544.05
2023-08-09T15:47:31.955Z,575.05
2023-08-09T15:49:58.656Z,540.30
2023-08-09T15:52:25.361Z,614.38
2023-08-09T15:54:51.887Z,532.72
2023-08-09T15:57:18.714Z,556.60
2023-08-09T15:59:45.458Z,535.10
2023-08-09T16:02:15.192Z,545.08
2023-08-09T16:04:41.960Z,553.13
2023-08-09T16:07:10.173Z,527.08
2023-08-09T16:09:40.990Z,605.17
2023-08-09T16:12:08.692Z,510.88
2023-08-09T16:14:35.469Z,634.53
2023-08-09T16:17:02.546Z,503.08
2023-08-09T16:19:29.605Z,517.92
2023-08-09T16:21:56.650Z,511.75
2023-08-09T16:24:23.259Z,512.15
2023-08-09T16:26:50.135Z,558.40
2023-08-09T16:29:16.968Z,519.88
2023-08-09T16:31:43.726Z,530.17
2023-08-09T16:34:10.267Z,518.25
2023-08-09T16:36:36.798Z,544.97
2023-08-09T16:39:03.558Z,515.63
2023-08-09T16:41:30.202Z,607.70
2023-08-09T16:43:56.975Z,517.15
2023-08-09T16:46:24.233Z,621.80
2023-08-09T16:48:50.902Z,519.03
2023-08-09T16:51:17.731Z,517.30
2023-08-09T16:53:44.304Z,506.63
2023-08-09T16:56:12.270Z,498.00
2023-08-09T16:58:38.875Z,555.20
2023-08-09T17:01:06.357Z,508.13
2023-08-09T17:03:33.069Z,609.72
2023-08-09T17:06:00.249Z,509.05
2023-08-09T17:08:26.929Z,540.03
2023-08-09T17:10:53.465Z,502.05
2023-08-09T17:13:20.729Z,535.30
2023-08-09T17:15:47.626Z,501.73
2023-08-09T17:18:14.530Z,510.85
2023-08-09T17:20:41.114Z,526.08
2023-08-09T17:23:07.704Z,514.20
2023-08-09T17:25:34.353Z,527.28
2023-08-09T17:28:01.032Z,512.75
2023-08-09T17:30:28.956Z,579.10
2023-08-09T17:32:58.425Z,506.55
2023-08-09T17:35:28.762Z,531.08
2023-08-09T17:37:55.628Z,505.55
2023-08-09T17:40:22.692Z,523.78
2023-08-09T17:42:49.294Z,517.38
2023-08-09T17:45:16.185Z,549.13
2023-08-09T17:47:44.804Z,513.70
2023-08-09T17:50:11.533Z,552.85
2023-08-09T17:52:38.050Z,536.83
2023-08-09T17:55:05.177Z,531.40
2023-08-09T17:57:31.853Z,550.35
2023-08-09T17:59:58.409Z,532.95
2023-08-09T18:02:25.085Z,542.08
2023-08-09T18:04:51.707Z,525.35
2023-08-09T18:07:18.725Z,529.90
2023-08-09T18:09:46.141Z,539.33
2023-08-09T18:12:12.734Z,514.60
2023-08-09T18:14:39.310Z,555.28
2023-08-09T18:17:06.167Z,545.88
2023-08-09T18:19:32.992Z,543.60
2023-08-09T18:21:59.680Z,556.78
2023-08-09T18:24:26.338Z,542.20
2023-08-09T18:26:52.987Z,560.10
2023-08-09T18:29:19.733Z,537.55
2023-08-09T18:31:46.882Z,593.47
2023-08-09T18:34:13.682Z,522.67
2023-08-09T18:36:40.330Z,525.60
2023-08-09T18:39:07.061Z,513.42
2023-08-09T18:41:33.576Z,537.80
2023-08-09T18:44:00.130Z,514.85
2023-08-09T18:46:27.000Z,545.75
2023-08-09T18:48:53.677Z,543.55
2023-08-09T18:51:20.294Z,514.53
2023-08-09T18:53:46.895Z,528.83
2023-08-09T18:56:13.700Z,508.02
2023-08-09T18:58:40.276Z,524.95
2023-08-09T19:01:07.741Z,547.17
2023-08-09T19:03:34.611Z,509.55
2023-08-09T19:06:01.421Z,535.55
2023-08-09T19:08:28.002Z,506.08
2023-08-09T19:10:54.754Z,549.28
2023-08-09T19:13:21.393Z,514.00
2023-08-09T19:15:48.090Z,560.92
2023-08-09T19:18:14.703Z,494.55
2023-08-09T19:20:41.409Z,510.13
2023-08-09T19:23:07.946Z,544.85
2023-08-09T19:25:35.946Z,506.17
2023-08-09T19:28:02.532Z,524.75
2023-08-09T19:30:29.685Z,502.73
2023-08-09T19:32:56.425Z,535.65
2023-08-09T19:35:23.134Z,501.65
2023-08-09T19:37:49.917Z,533.05
2023-08-09T19:40:16.740Z,544.75
2023-08-09T19:42:43.637Z,547.22
2023-08-09T19:45:10.696Z,546.83
2023-08-09T19:47:37.581Z,501.35
2023-08-09T19:50:05.318Z,538.40
2023-08-09T19:52:32.101Z,500.50
2023-08-09T19:54:58.878Z,597.88
2023-08-09T19:57:25.434Z,488.55
2023-08-09T19:59:51.988Z,521.30
2023-08-09T20:02:19.470Z,515.20
2023-08-09T20:04:47.070Z,523.45
2023-08-09T20:07:14.657Z,494.02
2023-08-09T20:09:41.642Z,516.05
2023-08-09T20:12:08.866Z,502.92
2023-08-09T20:14:35.494Z,505.35
2023-08-09T20:17:02.996Z,516.95
2023-08-09T20:19:31.750Z,482.17
2023-08-09T20:21:58.342Z,523.78
2023-08-09T20:24:44.441Z,503.33
2023-08-09T20:27:12.164Z,480.45
2023-08-09T20:29:39.344Z,584.75
2023-08-09T20:32:07.254Z,489.25
2023-08-09T20:34:34.453Z,563.17
2023-08-09T20:37:01.243Z,487.35
2023-08-09T20:39:29.170Z,529.33
2023-08-09T20:41:55.963Z,485.63
2023-08-09T20:44:22.629Z,484.00
2023-08-09T20:46:49.292Z,497.38
2023-08-09T20:49:15.954Z,480.40
2023-08-09T20:51:42.608Z,59.70
2023-08-09T20:54:09.482Z,5.38
2023-08-09T20:56:36.215Z,8.73
2023-08-09T20:59:04.549Z,416.77
2023-08-09T21:01:32.472Z,486.23
2023-08-09T21:04:00.327Z,483.38
2023-08-09T21:06:27.567Z,487.15
2023-08-09T21:08:54.451Z,485.40
2023-08-09T21:11:21.556Z,467.77
2023-08-09T21:13:48.092Z,489.95
2023-08-09T21:16:15.563Z,476.30
2023-08-09T21:18:45.112Z,508.08
2023-08-09T21:21:14.160Z,463.65
2023-08-09T21:26:11.254Z,485.23
2023-08-09T21:28:39.075Z,678.92
2023-08-09T21:31:05.697Z,480.67
2023-08-09T21:33:32.257Z,501.38
2023-08-09T21:35:58.995Z,473.48
2023-08-09T21:38:25.767Z,528.78
2023-08-09T21:40:59.328Z,475.08
2023-08-09T21:43:26.791Z,486.70
2023-08-09T21:45:54.033Z,474.20
2023-08-09T21:48:21.355Z,515.70
2023-08-09T21:50:51.130Z,513.83
2023-08-09T21:53:19.091Z,483.23
2023-08-09T21:55:45.876Z,513.22
2023-08-09T21:58:13.312Z,496.30
2023-08-09T22:00:41.090Z,588.53
2023-08-09T22:03:08.646Z,484.08
2023-08-09T22:05:35.864Z,538.55
2023-08-09T22:08:03.930Z,459.23
2023-08-09T22:10:31.182Z,474.08
2023-08-09T22:12:58.080Z,455.95
2023-08-09T22:15:25.496Z,504.50
2023-08-09T22:17:52.366Z,465.45
2023-08-09T22:20:20.921Z,495.98
2023-08-09T22:22:47.657Z,474.77
2023-08-09T22:25:14.623Z,499.40
2023-08-09T22:27:41.677Z,484.52
2023-08-09T22:30:08.838Z,508.88
2023-08-09T22:32:35.566Z,507.05
2023-08-09T22:35:02.456Z,478.92
2023-08-09T22:37:30.991Z,495.73
2023-08-09T22:39:57.818Z,461.48
2023-08-09T22:42:24.438Z,460.70
2023-08-09T22:44:51.251Z,478.33
2023-08-09T22:47:18.090Z,584.05
2023-08-09T22:49:44.708Z,476.55
2023-08-09T22:52:11.563Z,519.10
2023-08-09T22:54:38.328Z,474.45
2023-08-09T22:57:05.160Z,490.05
2023-08-09T22:59:31.861Z,471.75
2023-08-09T23:01:59.050Z,501.83
2023-08-09T23:04:25.916Z,532.00
2023-08-09T23:06:52.657Z,478.70
2023-08-09T23:09:19.719Z,499.38
2023-08-09T23:11:47.536Z,530.00
2023-08-09T23:14:15.301Z,508.75
2023-08-09T23:16:42.223Z,582.08
2023-08-09T23:19:08.951Z,523.17
2023-08-09T23:21:35.648Z,547.38
2023-08-09T23:24:02.441Z,510.27
2023-08-09T23:26:29.202Z,484.50
2023-08-09T23:28:56.022Z,504.80
2023-08-09T23:31:22.636Z,540.88
2023-08-09T23:33:49.190Z,517.90
2023-08-09T23:36:15.928Z,532.97
2023-08-09T23:38:42.907Z,537.83
2023-08-09T23:41:09.644Z,556.42
2023-08-09T23:43:36.245Z,545.20
2023-08-09T23:46:02.939Z,533.90
2023-08-09T23:48:29.614Z,628.65
2023-08-09T23:50:56.469Z,551.60
2023-08-09T23:53:23.178Z,557.10
2023-08-09T23:55:49.709Z,535.03
2023-08-09T23:58:16.437Z,591.30
